sensor_id;sensor_type;location;lat;lon;timestamp;pressure;altitude;pressure_sealevel;temperature;humidity
61880;BME280;47817;52.798;27.544;2022-12-07T00:04:15;1021.7;;;-2.4;82.5
61880;BME280;47817;52.798;27.544;2022-12-07T00:09:58;1021.7;;;-2.4;82.5
61880;BME280;47817;52.798;27.544;2022-12-07T00:14:58;1021.6;;;-2.3;82.4
61880;BME280;47817;52.798;27.544;2022-12-07T00:19:58;1021.6;;;-2.3;82.3
61880;BME280;47817;52.798;27.544;2022-12-07T00:24:24;1021.6;;;-2.3;82.3
61880;BME280;47817;52.798;27.544;2022-12-07T00:29:22;1021.6;;;-2.3;82.2
61880;BME280;47817;52.798;27.544;2022-12-07T00:34:30;1021.6;;;-2.3;82.2
61880;BME280;47817;52.798;27.544;2022-12-07T00:39:56;1021.5;;;-2.3;82.1
61880;BME280;47817;52.798;27.544;2022-12-07T00:44:42;1021.6;;;-2.3;82
61880;BME280;47817;52.798;27.544;2022-12-07T00:49:34;1021.6;;;-2.3;82
61880;BME280;47817;52.798;27.544;2022-12-07T00:54:20;1021.5;;;-2.2;81.9
61880;BME280;47817;52.798;27.544;2022-12-07T00:59:58;1021.5;;;-2.2;82
61880;BME280;47817;52.798;27.544;2022-12-07T01:04:22;1021.4;;;-2.2;82
61880;BME280;47817;52.798;27.544;2022-12-07T01:09:44;1021.4;;;-2.2;82
61880;BME280;47817;52.798;27.544;2022-12-07T01:14:46;1021.3;;;-2.2;82
61880;BME280;47817;52.798;27.544;2022-12-07T01:19:14;1021.3;;;-2.2;81.9
61880;BME280;47817;52.798;27.544;2022-12-07T01:25:00;1021.2;;;-2.2;81.8
61880;BME280;47817;52.798;27.544;2022-12-07T01:30:00;1021.2;;;-2.2;81.7
61880;BME280;47817;52.798;27.544;2022-12-07T01:35:00;1021.1;;;-2.2;81.8
61880;BME280;47817;52.798;27.544;2022-12-07T01:39:34;1021.1;;;-2.1;81.8
61880;BME280;47817;52.798;27.544;2022-12-07T01:44:26;1021.1;;;-2.1;81.8
61880;BME280;47817;52.798;27.544;2022-12-07T01:49:58;1021;;;-2.1;81.8
61880;BME280;47817;52.798;27.544;2022-12-07T01:55:01;1020.9;;;-2.1;81.9
61880;BME280;47817;52.798;27.544;2022-12-07T01:59:14;1020.8;;;-2.1;81.7
61880;BME280;47817;52.798;27.544;2022-12-07T02:04:52;1020.7;;;-2.2;81.8
61880;BME280;47817;52.798;27.544;2022-12-07T02:09:26;1020.7;;;-2.2;81.9
61880;BME280;47817;52.798;27.544;2022-12-07T02:15:00;1020.6;;;-2.1;81.9
61880;BME280;47817;52.798;27.544;2022-12-07T02:19:30;1020.5;;;-2.1;82
61880;BME280;47817;52.798;27.544;2022-12-07T02:24:49;1020.5;;;-2.1;82.1
61880;BME280;47817;52.798;27.544;2022-12-07T02:29:45;1020.4;;;-2.1;82.3
61880;BME280;47817;52.798;27.544;2022-12-07T02:34:17;1020.3;;;-2.1;82.3
61880;BME280;47817;52.798;27.544;2022-12-07T02:40:01;1020.2;;;-2.1;82.3
61880;BME280;47817;52.798;27.544;2022-12-07T02:44:56;1020.2;;;-2.1;82.4
61880;BME280;47817;52.798;27.544;2022-12-07T02:50:02;1020.2;;;-2.1;82.3
61880;BME280;47817;52.798;27.544;2022-12-07T02:54:34;1020.1;;;-2.1;82.3
61880;BME280;47817;52.798;27.544;2022-12-07T02:59:29;1020.1;;;-2.1;82.3
61880;BME280;47817;52.798;27.544;2022-12-07T03:04:37;1020.1;;;-2.1;82.3
61880;BME280;47817;52.798;27.544;2022-12-07T03:10:03;1020.2;;;-2.2;82.6
61880;BME280;47817;52.798;27.544;2022-12-07T03:14:35;1020.1;;;-2.1;82.7
61880;BME280;47817;52.798;27.544;2022-12-07T03:19:58;1020.1;;;-2.1;82.7
61880;BME280;47817;52.798;27.544;2022-12-07T03:24:24;1020;;;-2.1;82.8
61880;BME280;47817;52.798;27.544;2022-12-07T03:30:02;1019.9;;;-2.1;82.8
61880;BME280;47817;52.798;27.544;2022-12-07T03:34:33;1019.8;;;-2.1;82.9
61880;BME280;47817;52.798;27.544;2022-12-07T03:39:49;1019.8;;;-2.1;83
61880;BME280;47817;52.798;27.544;2022-12-07T03:44:46;1019.7;;;-2.1;83
61880;BME280;47817;52.798;27.544;2022-12-07T03:49:37;1019.7;;;-2.1;83
61880;BME280;47817;52.798;27.544;2022-12-07T03:55:02;1019.6;;;-2.1;83.1
61880;BME280;47817;52.798;27.544;2022-12-07T03:59:16;1019.5;;;-2.1;83.1
61880;BME280;47817;52.798;27.544;2022-12-07T04:04:38;1019.5;;;-2.1;83
61880;BME280;47817;52.798;27.544;2022-12-07T04:10:00;1019.4;;;-2.1;83.1
61880;BME280;47817;52.798;27.544;2022-12-07T04:14:14;1019.5;;;-2.1;83.3
61880;BME280;47817;52.798;27.544;2022-12-07T04:19:14;1019.4;;;-2.1;83.4
61880;BME280;47817;52.798;27.544;2022-12-07T04:24:34;1019.4;;;-2;83.5
61880;BME280;47817;52.798;27.544;2022-12-07T04:29:58;1019.3;;;-2;83.6
61880;BME280;47817;52.798;27.544;2022-12-07T04:34:58;1019.2;;;-2;83.6
61880;BME280;47817;52.798;27.544;2022-12-07T04:39:23;1019.2;;;-1.9;83.7
61880;BME280;47817;52.798;27.544;2022-12-07T04:44:15;1019.2;;;-1.9;83.7
61880;BME280;47817;52.798;27.544;2022-12-07T04:49:46;1019.1;;;-1.9;83.7
61880;BME280;47817;52.798;27.544;2022-12-07T04:54:46;1019.1;;;-1.9;83.7
61880;BME280;47817;52.798;27.544;2022-12-07T04:59:36;1019;;;-1.9;83.8
61880;BME280;47817;52.798;27.544;2022-12-07T05:04:14;1018.9;;;-1.9;83.8
61880;BME280;47817;52.798;27.544;2022-12-07T05:09:14;1018.9;;;-1.9;83.9
61880;BME280;47817;52.798;27.544;2022-12-07T05:14:46;1018.8;;;-1.9;84
61880;BME280;47817;52.798;27.544;2022-12-07T05:19:36;1018.8;;;-1.8;84
61880;BME280;47817;52.798;27.544;2022-12-07T05:24:58;1018.7;;;-1.8;84.1
61880;BME280;47817;52.798;27.544;2022-12-07T05:29:26;1018.7;;;-1.8;84.1
61880;BME280;47817;52.798;27.544;2022-12-07T05:34:24;1018.6;;;-1.9;84.3
61880;BME280;47817;52.798;27.544;2022-12-07T05:39:32;1018.6;;;-1.9;84.4
61880;BME280;47817;52.798;27.544;2022-12-07T05:44:58;1018.6;;;-1.8;84.5
61880;BME280;47817;52.798;27.544;2022-12-07T05:49:58;1018.6;;;-1.8;84.5
61880;BME280;47817;52.798;27.544;2022-12-07T05:54:14;1018.6;;;-1.8;84.6
61880;BME280;47817;52.798;27.544;2022-12-07T05:59:14;1018.6;;;-1.7;84.6
61880;BME280;47817;52.798;27.544;2022-12-07T06:04:43;1018.6;;;-1.7;84.6
61880;BME280;47817;52.798;27.544;2022-12-07T06:09:44;1018.5;;;-1.7;84.6
61880;BME280;47817;52.798;27.544;2022-12-07T06:14:20;1018.4;;;-1.8;84.8
61880;BME280;47817;52.798;27.544;2022-12-07T06:19:14;1018.4;;;-1.7;84.9
61880;BME280;47817;52.798;27.544;2022-12-07T06:24:14;1018.3;;;-1.7;85
61880;BME280;47817;52.798;27.544;2022-12-07T06:29:50;1018.3;;;-1.6;84.9
61880;BME280;47817;52.798;27.544;2022-12-07T06:34:36;1018.2;;;-1.6;84.9
61880;BME280;47817;52.798;27.544;2022-12-07T06:40:00;1018.1;;;-1.6;84.9
61880;BME280;47817;52.798;27.544;2022-12-07T06:44:14;1018.1;;;-1.5;84.9
61880;BME280;47817;52.798;27.544;2022-12-07T06:49:14;1018.1;;;-1.5;84.8
61880;BME280;47817;52.798;27.544;2022-12-07T06:54:24;1018.1;;;-1.4;84.8
61880;BME280;47817;52.798;27.544;2022-12-07T06:59:56;1018.1;;;-1.4;84.7
61880;BME280;47817;52.798;27.544;2022-12-07T07:04:58;1018.1;;;-1.3;84.6
61880;BME280;47817;52.798;27.544;2022-12-07T07:09:34;1018;;;-1.2;84.5
61880;BME280;47817;52.798;27.544;2022-12-07T07:14:14;1018;;;-1.3;84.5
61880;BME280;47817;52.798;27.544;2022-12-07T07:19:44;1018;;;-1.2;84.6
61880;BME280;47817;52.798;27.544;2022-12-07T07:24:45;1018;;;-1.1;84.5
61880;BME280;47817;52.798;27.544;2022-12-07T07:29:24;1018;;;-1.1;84.4
61880;BME280;47817;52.798;27.544;2022-12-07T07:34:28;1017.9;;;-1;84.3
61880;BME280;47817;52.798;27.544;2022-12-07T07:39:46;1017.9;;;-0.9;84.2
61880;BME280;47817;52.798;27.544;2022-12-07T07:44:46;1017.9;;;-0.8;84.1
61880;BME280;47817;52.798;27.544;2022-12-07T07:49:36;1017.8;;;-0.8;84.2
61880;BME280;47817;52.798;27.544;2022-12-07T07:54:58;1017.7;;;-0.7;84
61880;BME280;47817;52.798;27.544;2022-12-07T07:59:26;1017.6;;;-0.5;83.8
61880;BME280;47817;52.798;27.544;2022-12-07T08:04:14;1017.6;;;-0.4;83.5
61880;BME280;47817;52.798;27.544;2022-12-07T08:09:24;1017.6;;;-0.4;83.4
61880;BME280;47817;52.798;27.544;2022-12-07T08:14:54;1017.6;;;-0.4;83.1
61880;BME280;47817;52.798;27.544;2022-12-07T08:19:58;1017.5;;;-0.4;83.1
61880;BME280;47817;52.798;27.544;2022-12-07T08:24:36;1017.5;;;-0.3;83
61880;BME280;47817;52.798;27.544;2022-12-07T08:29:14;1017.4;;;0;82.7
61880;BME280;47817;52.798;27.544;2022-12-07T08:34:34;1017.4;;;0;82.6
61880;BME280;47817;52.798;27.544;2022-12-07T08:39:46;1017.3;;;0.1;82.3
61880;BME280;47817;52.798;27.544;2022-12-07T08:44:36;1017.2;;;0.3;82.1
61880;BME280;47817;52.798;27.544;2022-12-07T08:49:25;1017.2;;;0.4;81.7
61880;BME280;47817;52.798;27.544;2022-12-07T08:54:26;1017.1;;;0.5;81.4
61880;BME280;47817;52.798;27.544;2022-12-07T08:59:46;1017.1;;;0.6;81.4
61880;BME280;47817;52.798;27.544;2022-12-07T09:04:36;1017;;;0.8;80.7
61880;BME280;47817;52.798;27.544;2022-12-07T09:09:58;1016.9;;;0.8;80.6
61880;BME280;47817;52.798;27.544;2022-12-07T09:14:24;1016.9;;;0.6;80.6
61880;BME280;47817;52.798;27.544;2022-12-07T09:19:34;1016.8;;;0.3;81.1
61880;BME280;47817;52.798;27.544;2022-12-07T09:24:22;1016.7;;;0.1;81.6
61880;BME280;47817;52.798;27.544;2022-12-07T09:30:00;1016.7;;;0.1;81.8
61880;BME280;47817;52.798;27.544;2022-12-07T09:34:58;1016.5;;;0.3;81.5
61880;BME280;47817;52.798;27.544;2022-12-07T09:39:37;1016.5;;;0.4;81.2
61880;BME280;47817;52.798;27.544;2022-12-07T09:44:17;1016.4;;;0.6;81
61880;BME280;47817;52.798;27.544;2022-12-07T09:49:34;1016.3;;;0.9;80.5
61880;BME280;47817;52.798;27.544;2022-12-07T09:54:47;1016.3;;;1;80.2
61880;BME280;47817;52.798;27.544;2022-12-07T09:59:16;1016.3;;;1.2;80
61880;BME280;47817;52.798;27.544;2022-12-07T10:04:36;1016.2;;;1.3;79.9
61880;BME280;47817;52.798;27.544;2022-12-07T10:09:26;1016.1;;;1.3;79.7
61880;BME280;47817;52.798;27.544;2022-12-07T10:14:52;1016;;;1.5;79.6
61880;BME280;47817;52.798;27.544;2022-12-07T10:19:25;1016;;;1.7;78.8
61880;BME280;47817;52.798;27.544;2022-12-07T10:25:07;1015.9;;;1.5;78.9
61880;BME280;47817;52.798;27.544;2022-12-07T10:29:28;1015.9;;;1.3;79.4
61880;BME280;47817;52.798;27.544;2022-12-07T10:34:29;1015.8;;;1.1;79.7
61880;BME280;47817;52.798;27.544;2022-12-07T10:39:15;1015.8;;;1;80
61880;BME280;47817;52.798;27.544;2022-12-07T10:45:07;1015.8;;;0.9;80.1
61880;BME280;47817;52.798;27.544;2022-12-07T10:50:14;1015.7;;;0.9;80.1
61880;BME280;47817;52.798;27.544;2022-12-07T10:54:15;1015.7;;;0.8;80.2
61880;BME280;47817;52.798;27.544;2022-12-07T10:59:39;1015.7;;;0.7;80.5
61880;BME280;47817;52.798;27.544;2022-12-07T11:04:49;1015.7;;;0.6;80.7
61880;BME280;47817;52.798;27.544;2022-12-07T11:09:51;1015.6;;;0.7;80.6
61880;BME280;47817;52.798;27.544;2022-12-07T11:14:36;1015.6;;;0.7;80.9
61880;BME280;47817;52.798;27.544;2022-12-07T11:19:18;1015.5;;;0.6;81.2
61880;BME280;47817;52.798;27.544;2022-12-07T11:24:25;1015.5;;;0.4;81.4
61880;BME280;47817;52.798;27.544;2022-12-07T11:29:47;1015.4;;;0.4;81.8
61880;BME280;47817;52.798;27.544;2022-12-07T11:34:36;1015.4;;;0.3;82.3
61880;BME280;47817;52.798;27.544;2022-12-07T11:39:59;1015.4;;;0.3;82.6
61880;BME280;47817;52.798;27.544;2022-12-07T11:44:18;1015.3;;;0.4;82.7
61880;BME280;47817;52.798;27.544;2022-12-07T11:49:15;1015.3;;;0.6;82.7
61880;BME280;47817;52.798;27.544;2022-12-07T11:54:34;1015.3;;;0.7;82.6
61880;BME280;47817;52.798;27.544;2022-12-07T11:59:59;1015.2;;;0.9;82.5
61880;BME280;47817;52.798;27.544;2022-12-07T12:04:55;1015.2;;;1.2;82.2
61880;BME280;47817;52.798;27.544;2022-12-07T12:09:26;1015.2;;;1.5;81.7
61880;BME280;47817;52.798;27.544;2022-12-07T12:14:28;1015.2;;;1.7;81.3
61880;BME280;47817;52.798;27.544;2022-12-07T12:19:55;1015.2;;;1.6;81.4
61880;BME280;47817;52.798;27.544;2022-12-07T12:24:43;1015.1;;;1.4;81.8
61880;BME280;47817;52.798;27.544;2022-12-07T12:29:19;1015.1;;;1.3;82.2
61880;BME280;47817;52.798;27.544;2022-12-07T12:34:31;1015;;;1.2;82.5
61880;BME280;47817;52.798;27.544;2022-12-07T12:39:15;1015;;;1.1;82.7
61880;BME280;47817;52.798;27.544;2022-12-07T12:50:20;1015;;;1.1;83.1
61880;BME280;47817;52.798;27.544;2022-12-07T12:55:11;1015;;;1.1;83.3
61880;BME280;47817;52.798;27.544;2022-12-07T12:59:27;1014.9;;;1;83.6
61880;BME280;47817;52.798;27.544;2022-12-07T13:04:17;1014.9;;;1.1;83.8
61880;BME280;47817;52.798;27.544;2022-12-07T13:09:34;1014.8;;;1;84.1
61880;BME280;47817;52.798;27.544;2022-12-07T13:14:52;1014.8;;;1;84.3
61880;BME280;47817;52.798;27.544;2022-12-07T13:19:58;1014.8;;;1;84.6
61880;BME280;47817;52.798;27.544;2022-12-07T13:24:59;1014.7;;;1;84.7
61880;BME280;47817;52.798;27.544;2022-12-07T13:29:15;1014.8;;;0.8;84.9
61880;BME280;47817;52.798;27.544;2022-12-07T13:34:46;1014.8;;;0.9;85.3
61880;BME280;47817;52.798;27.544;2022-12-07T13:39:44;1014.8;;;0.9;85.5
61880;BME280;47817;52.798;27.544;2022-12-07T13:44:27;1014.7;;;0.9;85.7
61880;BME280;47817;52.798;27.544;2022-12-07T13:50:00;1014.7;;;0.9;85.9
61880;BME280;47817;52.798;27.544;2022-12-07T13:54:15;1014.7;;;0.9;86
61880;BME280;47817;52.798;27.544;2022-12-07T13:59:58;1014.7;;;0.9;86.3
61880;BME280;47817;52.798;27.544;2022-12-07T14:04:35;1014.7;;;0.9;86.4
61880;BME280;47817;52.798;27.544;2022-12-07T14:09:57;1014.7;;;0.9;86.5
61880;BME280;47817;52.798;27.544;2022-12-07T14:14:34;1014.7;;;0.9;86.8
61880;BME280;47817;52.798;27.544;2022-12-07T14:20:02;1014.7;;;0.9;87
61880;BME280;47817;52.798;27.544;2022-12-07T14:24:41;1014.6;;;1;87.2
61880;BME280;47817;52.798;27.544;2022-12-07T14:29:48;1014.7;;;1;87.1
61880;BME280;47817;52.798;27.544;2022-12-07T14:34:57;1014.7;;;1;87.4
61880;BME280;47817;52.798;27.544;2022-12-07T14:39:48;1014.7;;;1;87.5
61880;BME280;47817;52.798;27.544;2022-12-07T14:44:24;1014.6;;;1.1;87.7
61880;BME280;47817;52.798;27.544;2022-12-07T14:49:47;1014.6;;;1.1;87.7
61880;BME280;47817;52.798;27.544;2022-12-07T14:54:45;1014.6;;;1.1;87.9
61880;BME280;47817;52.798;27.544;2022-12-07T14:59:36;1014.5;;;1.1;87.9
61880;BME280;47817;52.798;27.544;2022-12-07T15:05:00;1014.5;;;1.1;88.1
61880;BME280;47817;52.798;27.544;2022-12-07T15:09:14;1014.5;;;1.2;88.3
61880;BME280;47817;52.798;27.544;2022-12-07T15:14:58;1014.5;;;1.2;88.3
61880;BME280;47817;52.798;27.544;2022-12-07T15:19:37;1014.5;;;1.3;88.4
61880;BME280;47817;52.798;27.544;2022-12-07T15:24:48;1014.5;;;1.3;88.6
61880;BME280;47817;52.798;27.544;2022-12-07T15:29:38;1014.5;;;1.3;88.8
61880;BME280;47817;52.798;27.544;2022-12-07T15:34:27;1014.5;;;1.4;88.8
61880;BME280;47817;52.798;27.544;2022-12-07T15:39:25;1014.5;;;1.4;89
61880;BME280;47817;52.798;27.544;2022-12-07T15:44:48;1014.4;;;1.5;89.1
61880;BME280;47817;52.798;27.544;2022-12-07T15:50:01;1014.5;;;1.6;89.1
61880;BME280;47817;52.798;27.544;2022-12-07T15:55:01;1014.5;;;1.6;89.1
61880;BME280;47817;52.798;27.544;2022-12-07T15:59:15;1014.5;;;1.7;89.1
61880;BME280;47817;52.798;27.544;2022-12-07T16:04:37;1014.5;;;1.7;89.2
61880;BME280;47817;52.798;27.544;2022-12-07T16:09:47;1014.6;;;1.7;89.2
61880;BME280;47817;52.798;27.544;2022-12-07T16:14:35;1014.6;;;1.7;89.3
61880;BME280;47817;52.798;27.544;2022-12-07T16:19:59;1014.7;;;1.8;89.5
61880;BME280;47817;52.798;27.544;2022-12-07T16:24:27;1014.7;;;1.8;89.4
61880;BME280;47817;52.798;27.544;2022-12-07T16:30:01;1014.7;;;1.8;89.5
61880;BME280;47817;52.798;27.544;2022-12-07T16:34:15;1014.8;;;1.9;89.4
61880;BME280;47817;52.798;27.544;2022-12-07T16:39:49;1014.8;;;1.9;89.6
61880;BME280;47817;52.798;27.544;2022-12-07T16:44:35;1014.8;;;1.9;89.9
61880;BME280;47817;52.798;27.544;2022-12-07T16:49:25;1014.8;;;2;89.8
61880;BME280;47817;52.798;27.544;2022-12-07T16:54:35;1014.7;;;2;89.9
61880;BME280;47817;52.798;27.544;2022-12-07T16:59:51;1014.7;;;2;89.9
61880;BME280;47817;52.798;27.544;2022-12-07T17:04:57;1014.7;;;2;90
61880;BME280;47817;52.798;27.544;2022-12-07T17:09:57;1014.7;;;2.1;90.1
61880;BME280;47817;52.798;27.544;2022-12-07T17:14:23;1014.7;;;2.1;90
61880;BME280;47817;52.798;27.544;2022-12-07T17:19:27;1014.7;;;2.1;90.2
61880;BME280;47817;52.798;27.544;2022-12-07T17:24:45;1014.7;;;2.1;90.3
61880;BME280;47817;52.798;27.544;2022-12-07T17:29:37;1014.8;;;2.1;90.4
61880;BME280;47817;52.798;27.544;2022-12-07T17:34:45;1014.8;;;2.1;90.4
61880;BME280;47817;52.798;27.544;2022-12-07T17:39:27;1014.9;;;2.1;90.5
61880;BME280;47817;52.798;27.544;2022-12-07T17:44:59;1014.9;;;2.1;90.6
61880;BME280;47817;52.798;27.544;2022-12-07T17:49:15;1014.9;;;2.1;90.8
61880;BME280;47817;52.798;27.544;2022-12-07T17:54:47;1014.9;;;2.2;90.8
61880;BME280;47817;52.798;27.544;2022-12-07T17:59:35;1014.9;;;2.1;90.9
61880;BME280;47817;52.798;27.544;2022-12-07T18:04:37;1014.9;;;2.2;90.9
61880;BME280;47817;52.798;27.544;2022-12-07T18:09:47;1014.9;;;2.2;91
61880;BME280;47817;52.798;27.544;2022-12-07T18:14:47;1014.9;;;2.2;91
61880;BME280;47817;52.798;27.544;2022-12-07T18:19:35;1014.9;;;2.2;91.1
61880;BME280;47817;52.798;27.544;2022-12-07T18:24:59;1014.9;;;2.2;91.8
61880;BME280;47817;52.798;27.544;2022-12-07T18:29:16;1015;;;2.2;92.9
61880;BME280;47817;52.798;27.544;2022-12-07T18:34:59;1015.1;;;2.2;93.7
61880;BME280;47817;52.798;27.544;2022-12-07T18:39:39;1015.1;;;2.2;94
61880;BME280;47817;52.798;27.544;2022-12-07T18:44:37;1015.1;;;2.2;94.7
61880;BME280;47817;52.798;27.544;2022-12-07T18:49:57;1015.1;;;2.2;95.2
61880;BME280;47817;52.798;27.544;2022-12-07T18:54:15;1015.1;;;2.1;95.6
61880;BME280;47817;52.798;27.544;2022-12-07T18:59:59;1015.1;;;2.1;96
61880;BME280;47817;52.798;27.544;2022-12-07T19:04:37;1015.1;;;2.1;96.3
61880;BME280;47817;52.798;27.544;2022-12-07T19:09:47;1015.2;;;2.1;96.7
61880;BME280;47817;52.798;27.544;2022-12-07T19:14:15;1015.2;;;2.1;97
61880;BME280;47817;52.798;27.544;2022-12-07T19:19:15;1015.2;;;2.2;97.2
61880;BME280;47817;52.798;27.544;2022-12-07T19:24:15;1015.2;;;2.2;97.2
61880;BME280;47817;52.798;27.544;2022-12-07T19:29:51;1015.2;;;2.1;97.4
61880;BME280;47817;52.798;27.544;2022-12-07T19:34:37;1015.3;;;2.2;97.5
61880;BME280;47817;52.798;27.544;2022-12-07T19:39:59;1015.3;;;2.1;97.6
61880;BME280;47817;52.798;27.544;2022-12-07T19:44:27;1015.3;;;2.1;97.8
61880;BME280;47817;52.798;27.544;2022-12-07T19:49:59;1015.4;;;2.1;98.1
61880;BME280;47817;52.798;27.544;2022-12-07T19:54:45;1015.4;;;2.1;98.3
61880;BME280;47817;52.798;27.544;2022-12-07T19:59:49;1015.3;;;2.1;98.4
61880;BME280;47817;52.798;27.544;2022-12-07T20:04:47;1015.3;;;2.1;98.5
61880;BME280;47817;52.798;27.544;2022-12-07T20:09:27;1015.4;;;2.1;98.7
61880;BME280;47817;52.798;27.544;2022-12-07T20:14:59;1015.3;;;2.1;98.7
61880;BME280;47817;52.798;27.544;2022-12-07T20:19:35;1015.3;;;2.1;98.8
61880;BME280;47817;52.798;27.544;2022-12-07T20:24:59;1015.4;;;2.1;98.8
61880;BME280;47817;52.798;27.544;2022-12-07T20:29:35;1015.4;;;2.1;99
61880;BME280;47817;52.798;27.544;2022-12-07T20:34:15;1015.4;;;2.1;99.1
61880;BME280;47817;52.798;27.544;2022-12-07T20:39:15;1015.4;;;2.1;99.1
61880;BME280;47817;52.798;27.544;2022-12-07T20:44:49;1015.4;;;2.2;99.1
61880;BME280;47817;52.798;27.544;2022-12-07T20:49:35;1015.4;;;2.2;99.1
61880;BME280;47817;52.798;27.544;2022-12-07T20:54:57;1015.4;;;2.1;99.3
61880;BME280;47817;52.798;27.544;2022-12-07T20:59:25;1015.4;;;2.1;99.5
61880;BME280;47817;52.798;27.544;2022-12-07T21:04:47;1015.4;;;2.2;99.6
61880;BME280;47817;52.798;27.544;2022-12-07T21:09:39;1015.5;;;2.2;99.8
61880;BME280;47817;52.798;27.544;2022-12-07T21:14:51;1015.5;;;2.2;99.6
61880;BME280;47817;52.798;27.544;2022-12-07T21:19:49;1015.4;;;2.2;99.8
61880;BME280;47817;52.798;27.544;2022-12-07T21:24:39;1015.4;;;2.3;100
61880;BME280;47817;52.798;27.544;2022-12-07T21:30:01;1015.4;;;2.3;100
61880;BME280;47817;52.798;27.544;2022-12-07T21:34:35;1015.4;;;2.3;100
61880;BME280;47817;52.798;27.544;2022-12-07T21:39:47;1015.4;;;2.3;100
61880;BME280;47817;52.798;27.544;2022-12-07T21:44:33;1015.5;;;2.2;100
61880;BME280;47817;52.798;27.544;2022-12-07T21:49:23;1015.4;;;2.2;99.9
61880;BME280;47817;52.798;27.544;2022-12-07T21:54:46;1015.5;;;2.2;100
61880;BME280;47817;52.798;27.544;2022-12-07T21:59:57;1015.5;;;2.2;100
61880;BME280;47817;52.798;27.544;2022-12-07T22:04:25;1015.5;;;2.2;100
61880;BME280;47817;52.798;27.544;2022-12-07T22:09:45;1015.5;;;2.2;100
61880;BME280;47817;52.798;27.544;2022-12-07T22:14:15;1015.6;;;2.2;100
61880;BME280;47817;52.798;27.544;2022-12-07T22:19:55;1015.6;;;2.2;100
61880;BME280;47817;52.798;27.544;2022-12-07T22:24:31;1015.6;;;2.2;100
61880;BME280;47817;52.798;27.544;2022-12-07T22:29:45;1015.5;;;2.2;100
61880;BME280;47817;52.798;27.544;2022-12-07T22:34:43;1015.6;;;2.2;100
61880;BME280;47817;52.798;27.544;2022-12-07T22:39:23;1015.6;;;2.2;100
61880;BME280;47817;52.798;27.544;2022-12-07T22:44:55;1015.5;;;2.2;100
61880;BME280;47817;52.798;27.544;2022-12-07T22:49:57;1015.5;;;2.3;100
61880;BME280;47817;52.798;27.544;2022-12-07T22:54:57;1015.5;;;2.2;100
61880;BME280;47817;52.798;27.544;2022-12-07T22:59:33;1015.5;;;2.2;100
61880;BME280;47817;52.798;27.544;2022-12-07T23:04:21;1015.5;;;2.3;100
61880;BME280;47817;52.798;27.544;2022-12-07T23:09:15;1015.5;;;2.3;100
61880;BME280;47817;52.798;27.544;2022-12-07T23:14:55;1015.5;;;2.2;100
61880;BME280;47817;52.798;27.544;2022-12-07T23:19:31;1015.5;;;2.3;100
61880;BME280;47817;52.798;27.544;2022-12-07T23:24:43;1015.5;;;2.3;100
61880;BME280;47817;52.798;27.544;2022-12-07T23:29:21;1015.5;;;2.3;100
61880;BME280;47817;52.798;27.544;2022-12-07T23:34:57;1015.4;;;2.3;100
61880;BME280;47817;52.798;27.544;2022-12-07T23:39:31;1015.5;;;2.3;100
61880;BME280;47817;52.798;27.544;2022-12-07T23:44:45;1015.5;;;2.3;100
61880;BME280;47817;52.798;27.544;2022-12-07T23:49:41;1015.5;;;2.3;100
61880;BME280;47817;52.798;27.544;2022-12-07T23:54:15;1015.5;;;2.3;100
61880;BME280;47817;52.798;27.544;2022-12-07T23:59:55;1015.6;;;2.3;100
